sensor_id;sensor_type;location;lat;lon;timestamp;P1;durP1;ratioP1;P2;durP2;ratioP2
59786;SDS011;45672;51.612;5.536;2022-09-09T00:02:02;2.85;;;2.08;;
59786;SDS011;45672;51.612;5.536;2022-09-09T00:04:35;3.65;;;2.03;;
59786;SDS011;45672;51.612;5.536;2022-09-09T00:07:07;5.28;;;2.10;;
59786;SDS011;45672;51.612;5.536;2022-09-09T00:09:48;7.65;;;2.10;;
59786;SDS011;45672;51.612;5.536;2022-09-09T00:12:43;4.07;;;1.98;;
59786;SDS011;45672;51.612;5.536;2022-09-09T00:15:26;4.07;;;2.00;;
59786;SDS011;45672;51.612;5.536;2022-09-09T00:18:05;2.05;;;1.90;;
59786;SDS011;45672;51.612;5.536;2022-09-09T00:20:42;7.57;;;2.38;;
59786;SDS011;45672;51.612;5.536;2022-09-09T00:23:29;3.05;;;2.50;;
59786;SDS011;45672;51.612;5.536;2022-09-09T00:26:18;3.88;;;2.35;;
59786;SDS011;45672;51.612;5.536;2022-09-09T00:28:48;2.80;;;2.33;;
59786;SDS011;45672;51.612;5.536;2022-09-09T00:31:33;4.63;;;2.17;;
59786;SDS011;45672;51.612;5.536;2022-09-09T00:34:00;3.95;;;2.08;;
59786;SDS011;45672;51.612;5.536;2022-09-09T00:36:34;2.85;;;2.38;;
59786;SDS011;45672;51.612;5.536;2022-09-09T00:39:02;2.65;;;2.28;;
59786;SDS011;45672;51.612;5.536;2022-09-09T00:41:36;2.70;;;2.50;;
59786;SDS011;45672;51.612;5.536;2022-09-09T00:44:32;3.25;;;2.30;;
59786;SDS011;45672;51.612;5.536;2022-09-09T00:47:09;2.22;;;2.00;;
59786;SDS011;45672;51.612;5.536;2022-09-09T00:52:32;2.72;;;2.15;;
59786;SDS011;45672;51.612;5.536;2022-09-09T00:55:05;2.22;;;2.00;;
59786;SDS011;45672;51.612;5.536;2022-09-09T00:57:38;2.22;;;2.13;;
59786;SDS011;45672;51.612;5.536;2022-09-09T01:05:51;2.53;;;2.20;;
59786;SDS011;45672;51.612;5.536;2022-09-09T01:11:27;3.88;;;2.17;;
59786;SDS011;45672;51.612;5.536;2022-09-09T01:17:01;1.90;;;1.80;;
59786;SDS011;45672;51.612;5.536;2022-09-09T01:19:55;2.60;;;2.40;;
59786;SDS011;45672;51.612;5.536;2022-09-09T01:28:05;2.40;;;2.10;;
59786;SDS011;45672;51.612;5.536;2022-09-09T01:30:35;6.43;;;2.00;;
59786;SDS011;45672;51.612;5.536;2022-09-09T01:33:03;3.00;;;1.80;;
59786;SDS011;45672;51.612;5.536;2022-09-09T01:38:13;3.83;;;1.80;;
59786;SDS011;45672;51.612;5.536;2022-09-09T01:40:40;3.85;;;1.90;;
59786;SDS011;45672;51.612;5.536;2022-09-09T01:43:05;2.28;;;2.08;;
59786;SDS011;45672;51.612;5.536;2022-09-09T01:45:32;4.93;;;1.70;;
59786;SDS011;45672;51.612;5.536;2022-09-09T01:47:58;2.42;;;1.90;;
59786;SDS011;45672;51.612;5.536;2022-09-09T01:50:24;2.53;;;1.70;;
59786;SDS011;45672;51.612;5.536;2022-09-09T01:52:51;2.88;;;1.70;;
59786;SDS011;45672;51.612;5.536;2022-09-09T01:55:22;2.55;;;1.80;;
59786;SDS011;45672;51.612;5.536;2022-09-09T02:00:51;4.20;;;2.30;;
59786;SDS011;45672;51.612;5.536;2022-09-09T02:03:25;4.18;;;1.90;;
59786;SDS011;45672;51.612;5.536;2022-09-09T02:05:56;4.30;;;1.83;;
59786;SDS011;45672;51.612;5.536;2022-09-09T02:16:07;6.35;;;1.92;;
59786;SDS011;45672;51.612;5.536;2022-09-09T02:18:45;6.75;;;1.80;;
59786;SDS011;45672;51.612;5.536;2022-09-09T02:21:15;3.03;;;1.80;;
59786;SDS011;45672;51.612;5.536;2022-09-09T02:23:43;5.45;;;1.92;;
59786;SDS011;45672;51.612;5.536;2022-09-09T02:26:12;3.58;;;2.10;;
59786;SDS011;45672;51.612;5.536;2022-09-09T02:28:44;3.15;;;2.08;;
59786;SDS011;45672;51.612;5.536;2022-09-09T02:31:11;4.20;;;2.00;;
59786;SDS011;45672;51.612;5.536;2022-09-09T02:33:39;5.38;;;2.42;;
59786;SDS011;45672;51.612;5.536;2022-09-09T02:36:08;5.78;;;1.98;;
59786;SDS011;45672;51.612;5.536;2022-09-09T02:38:37;2.28;;;2.03;;
59786;SDS011;45672;51.612;5.536;2022-09-09T02:41:07;3.67;;;1.92;;
59786;SDS011;45672;51.612;5.536;2022-09-09T02:43:33;2.25;;;2.05;;
59786;SDS011;45672;51.612;5.536;2022-09-09T02:46:03;4.10;;;2.22;;
59786;SDS011;45672;51.612;5.536;2022-09-09T02:48:55;3.30;;;2.28;;
59786;SDS011;45672;51.612;5.536;2022-09-09T02:51:35;4.78;;;2.20;;
59786;SDS011;45672;51.612;5.536;2022-09-09T02:56:47;7.40;;;2.10;;
59786;SDS011;45672;51.612;5.536;2022-09-09T02:59:19;3.83;;;2.30;;
59786;SDS011;45672;51.612;5.536;2022-09-09T03:01:45;3.70;;;2.20;;
59786;SDS011;45672;51.612;5.536;2022-09-09T03:04:11;3.92;;;2.08;;
59786;SDS011;45672;51.612;5.536;2022-09-09T03:06:37;5.90;;;2.60;;
59786;SDS011;45672;51.612;5.536;2022-09-09T03:09:02;4.43;;;2.50;;
59786;SDS011;45672;51.612;5.536;2022-09-09T03:11:28;5.50;;;2.22;;
59786;SDS011;45672;51.612;5.536;2022-09-09T03:13:53;3.80;;;2.40;;
59786;SDS011;45672;51.612;5.536;2022-09-09T03:16:21;5.45;;;2.38;;
59786;SDS011;45672;51.612;5.536;2022-09-09T03:18:47;4.65;;;2.25;;
59786;SDS011;45672;51.612;5.536;2022-09-09T03:21:12;3.88;;;2.50;;
59786;SDS011;45672;51.612;5.536;2022-09-09T03:23:37;4.63;;;2.22;;
59786;SDS011;45672;51.612;5.536;2022-09-09T03:26:03;6.43;;;3.10;;
59786;SDS011;45672;51.612;5.536;2022-09-09T03:28:28;4.60;;;2.70;;
59786;SDS011;45672;51.612;5.536;2022-09-09T03:30:59;6.90;;;2.30;;
59786;SDS011;45672;51.612;5.536;2022-09-09T03:33:25;5.90;;;2.30;;
59786;SDS011;45672;51.612;5.536;2022-09-09T03:35:50;7.53;;;2.50;;
59786;SDS011;45672;51.612;5.536;2022-09-09T03:38:16;6.10;;;2.75;;
59786;SDS011;45672;51.612;5.536;2022-09-09T03:40:48;8.98;;;2.67;;
59786;SDS011;45672;51.612;5.536;2022-09-09T03:43:24;3.90;;;2.38;;
59786;SDS011;45672;51.612;5.536;2022-09-09T03:45:50;6.30;;;2.47;;
59786;SDS011;45672;51.612;5.536;2022-09-09T03:48:16;8.20;;;2.40;;
59786;SDS011;45672;51.612;5.536;2022-09-09T03:50:45;7.57;;;2.53;;
59786;SDS011;45672;51.612;5.536;2022-09-09T03:53:11;4.70;;;2.20;;
59786;SDS011;45672;51.612;5.536;2022-09-09T03:55:37;2.97;;;2.33;;
59786;SDS011;45672;51.612;5.536;2022-09-09T03:58:02;8.18;;;2.53;;
59786;SDS011;45672;51.612;5.536;2022-09-09T04:00:27;2.40;;;2.17;;
59786;SDS011;45672;51.612;5.536;2022-09-09T04:02:53;5.70;;;2.10;;
59786;SDS011;45672;51.612;5.536;2022-09-09T04:05:19;4.15;;;2.10;;
59786;SDS011;45672;51.612;5.536;2022-09-09T04:07:44;4.22;;;2.13;;
59786;SDS011;45672;51.612;5.536;2022-09-09T04:10:10;4.63;;;2.38;;
59786;SDS011;45672;51.612;5.536;2022-09-09T04:12:35;6.38;;;2.80;;
59786;SDS011;45672;51.612;5.536;2022-09-09T04:15:01;5.07;;;2.40;;
59786;SDS011;45672;51.612;5.536;2022-09-09T04:17:27;7.32;;;2.40;;
59786;SDS011;45672;51.612;5.536;2022-09-09T04:19:52;4.13;;;2.47;;
59786;SDS011;45672;51.612;5.536;2022-09-09T04:22:18;8.10;;;2.60;;
59786;SDS011;45672;51.612;5.536;2022-09-09T04:24:43;5.93;;;2.58;;
59786;SDS011;45672;51.612;5.536;2022-09-09T04:27:08;4.78;;;2.45;;
59786;SDS011;45672;51.612;5.536;2022-09-09T04:29:34;7.55;;;2.70;;
59786;SDS011;45672;51.612;5.536;2022-09-09T04:31:59;4.82;;;2.50;;
59786;SDS011;45672;51.612;5.536;2022-09-09T04:34:25;10.25;;;2.40;;
59786;SDS011;45672;51.612;5.536;2022-09-09T04:36:54;4.50;;;2.40;;
59786;SDS011;45672;51.612;5.536;2022-09-09T04:39:20;7.15;;;2.60;;
59786;SDS011;45672;51.612;5.536;2022-09-09T04:41:45;6.50;;;3.10;;
59786;SDS011;45672;51.612;5.536;2022-09-09T04:44:10;9.20;;;2.63;;
59786;SDS011;45672;51.612;5.536;2022-09-09T04:46:36;7.97;;;2.78;;
59786;SDS011;45672;51.612;5.536;2022-09-09T04:49:01;6.25;;;2.67;;
59786;SDS011;45672;51.612;5.536;2022-09-09T04:51:26;6.60;;;2.72;;
59786;SDS011;45672;51.612;5.536;2022-09-09T04:53:53;6.93;;;2.50;;
59786;SDS011;45672;51.612;5.536;2022-09-09T04:56:18;9.68;;;2.83;;
59786;SDS011;45672;51.612;5.536;2022-09-09T04:58:44;10.77;;;2.60;;
59786;SDS011;45672;51.612;5.536;2022-09-09T05:01:11;3.30;;;2.47;;
59786;SDS011;45672;51.612;5.536;2022-09-09T05:03:38;7.57;;;2.45;;
59786;SDS011;45672;51.612;5.536;2022-09-09T05:06:11;6.57;;;2.60;;
59786;SDS011;45672;51.612;5.536;2022-09-09T05:08:38;9.45;;;3.10;;
59786;SDS011;45672;51.612;5.536;2022-09-09T05:11:16;8.07;;;2.67;;
59786;SDS011;45672;51.612;5.536;2022-09-09T05:13:44;5.88;;;2.60;;
59786;SDS011;45672;51.612;5.536;2022-09-09T05:16:10;10.52;;;3.17;;
59786;SDS011;45672;51.612;5.536;2022-09-09T05:18:38;7.47;;;2.53;;
59786;SDS011;45672;51.612;5.536;2022-09-09T05:21:04;5.40;;;2.45;;
59786;SDS011;45672;51.612;5.536;2022-09-09T05:23:31;10.07;;;2.53;;
59786;SDS011;45672;51.612;5.536;2022-09-09T05:25:57;9.98;;;2.95;;
59786;SDS011;45672;51.612;5.536;2022-09-09T05:28:23;8.05;;;2.40;;
59786;SDS011;45672;51.612;5.536;2022-09-09T05:30:59;7.65;;;2.45;;
59786;SDS011;45672;51.612;5.536;2022-09-09T05:33:29;8.32;;;2.50;;
59786;SDS011;45672;51.612;5.536;2022-09-09T05:35:56;10.20;;;2.50;;
59786;SDS011;45672;51.612;5.536;2022-09-09T05:38:23;4.55;;;2.40;;
59786;SDS011;45672;51.612;5.536;2022-09-09T05:40:50;8.23;;;2.38;;
59786;SDS011;45672;51.612;5.536;2022-09-09T05:43:15;9.13;;;2.55;;
59786;SDS011;45672;51.612;5.536;2022-09-09T05:45:41;6.70;;;2.53;;
59786;SDS011;45672;51.612;5.536;2022-09-09T05:48:06;9.50;;;2.55;;
59786;SDS011;45672;51.612;5.536;2022-09-09T05:50:32;10.63;;;2.35;;
59786;SDS011;45672;51.612;5.536;2022-09-09T05:52:58;7.18;;;2.40;;
59786;SDS011;45672;51.612;5.536;2022-09-09T05:55:23;7.78;;;2.60;;
59786;SDS011;45672;51.612;5.536;2022-09-09T05:57:50;6.88;;;2.85;;
59786;SDS011;45672;51.612;5.536;2022-09-09T06:00:16;15.18;;;2.60;;
59786;SDS011;45672;51.612;5.536;2022-09-09T06:02:42;7.15;;;2.38;;
59786;SDS011;45672;51.612;5.536;2022-09-09T06:05:08;8.88;;;2.60;;
59786;SDS011;45672;51.612;5.536;2022-09-09T06:07:33;8.18;;;2.20;;
59786;SDS011;45672;51.612;5.536;2022-09-09T06:09:59;8.13;;;2.70;;
59786;SDS011;45672;51.612;5.536;2022-09-09T06:12:25;8.52;;;2.60;;
59786;SDS011;45672;51.612;5.536;2022-09-09T06:14:50;8.52;;;2.50;;
59786;SDS011;45672;51.612;5.536;2022-09-09T06:17:16;7.68;;;2.33;;
59786;SDS011;45672;51.612;5.536;2022-09-09T06:19:42;7.75;;;2.17;;
59786;SDS011;45672;51.612;5.536;2022-09-09T06:22:07;12.75;;;2.67;;
59786;SDS011;45672;51.612;5.536;2022-09-09T06:24:32;6.75;;;2.45;;
59786;SDS011;45672;51.612;5.536;2022-09-09T06:26:58;11.25;;;2.58;;
59786;SDS011;45672;51.612;5.536;2022-09-09T06:29:23;7.63;;;2.40;;
59786;SDS011;45672;51.612;5.536;2022-09-09T06:31:48;9.23;;;2.38;;
59786;SDS011;45672;51.612;5.536;2022-09-09T06:34:14;6.60;;;2.33;;
59786;SDS011;45672;51.612;5.536;2022-09-09T06:36:39;6.07;;;1.98;;
59786;SDS011;45672;51.612;5.536;2022-09-09T06:39:05;4.88;;;1.80;;
59786;SDS011;45672;51.612;5.536;2022-09-09T06:41:32;9.65;;;2.05;;
59786;SDS011;45672;51.612;5.536;2022-09-09T06:43:58;10.75;;;2.25;;
59786;SDS011;45672;51.612;5.536;2022-09-09T06:46:27;7.45;;;1.95;;
59786;SDS011;45672;51.612;5.536;2022-09-09T06:48:55;7.68;;;2.15;;
59786;SDS011;45672;51.612;5.536;2022-09-09T06:51:24;6.15;;;1.65;;
59786;SDS011;45672;51.612;5.536;2022-09-09T06:53:52;8.88;;;2.00;;
59786;SDS011;45672;51.612;5.536;2022-09-09T06:58:45;5.57;;;2.00;;
59786;SDS011;45672;51.612;5.536;2022-09-09T07:01:12;8.15;;;2.53;;
59786;SDS011;45672;51.612;5.536;2022-09-09T07:03:45;7.70;;;2.33;;
59786;SDS011;45672;51.612;5.536;2022-09-09T07:06:19;5.95;;;2.05;;
59786;SDS011;45672;51.612;5.536;2022-09-09T07:08:52;7.38;;;1.80;;
59786;SDS011;45672;51.612;5.536;2022-09-09T07:11:19;9.80;;;1.95;;
59786;SDS011;45672;51.612;5.536;2022-09-09T07:13:45;8.07;;;1.90;;
59786;SDS011;45672;51.612;5.536;2022-09-09T07:16:12;7.72;;;2.63;;
59786;SDS011;45672;51.612;5.536;2022-09-09T07:18:39;6.78;;;1.80;;
59786;SDS011;45672;51.612;5.536;2022-09-09T07:21:05;7.80;;;2.05;;
59786;SDS011;45672;51.612;5.536;2022-09-09T07:23:31;8.07;;;2.15;;
59786;SDS011;45672;51.612;5.536;2022-09-09T07:25:57;9.05;;;1.70;;
59786;SDS011;45672;51.612;5.536;2022-09-09T07:28:23;5.55;;;1.55;;
59786;SDS011;45672;51.612;5.536;2022-09-09T07:30:53;7.68;;;1.92;;
59786;SDS011;45672;51.612;5.536;2022-09-09T07:33:22;7.35;;;1.90;;
59786;SDS011;45672;51.612;5.536;2022-09-09T07:35:48;8.88;;;1.65;;
59786;SDS011;45672;51.612;5.536;2022-09-09T07:38:14;7.53;;;2.22;;
59786;SDS011;45672;51.612;5.536;2022-09-09T07:40:40;9.77;;;2.00;;
59786;SDS011;45672;51.612;5.536;2022-09-09T07:43:05;7.47;;;1.83;;
59786;SDS011;45672;51.612;5.536;2022-09-09T07:45:30;5.47;;;1.52;;
59786;SDS011;45672;51.612;5.536;2022-09-09T07:47:57;5.30;;;1.90;;
59786;SDS011;45672;51.612;5.536;2022-09-09T07:50:23;8.00;;;1.83;;
59786;SDS011;45672;51.612;5.536;2022-09-09T07:52:49;9.65;;;2.00;;
59786;SDS011;45672;51.612;5.536;2022-09-09T07:55:15;9.02;;;1.83;;
59786;SDS011;45672;51.612;5.536;2022-09-09T07:57:40;7.38;;;2.03;;
59786;SDS011;45672;51.612;5.536;2022-09-09T08:00:06;6.50;;;1.80;;
59786;SDS011;45672;51.612;5.536;2022-09-09T08:02:31;6.65;;;1.95;;
59786;SDS011;45672;51.612;5.536;2022-09-09T08:04:56;9.18;;;1.98;;
59786;SDS011;45672;51.612;5.536;2022-09-09T08:07:22;11.45;;;2.05;;
59786;SDS011;45672;51.612;5.536;2022-09-09T08:09:48;6.47;;;2.28;;
59786;SDS011;45672;51.612;5.536;2022-09-09T08:12:14;5.85;;;1.60;;
59786;SDS011;45672;51.612;5.536;2022-09-09T08:14:39;7.18;;;1.98;;
59786;SDS011;45672;51.612;5.536;2022-09-09T08:17:05;9.10;;;1.98;;
59786;SDS011;45672;51.612;5.536;2022-09-09T08:19:30;3.83;;;1.50;;
59786;SDS011;45672;51.612;5.536;2022-09-09T08:21:58;6.63;;;1.73;;
59786;SDS011;45672;51.612;5.536;2022-09-09T08:24:24;7.35;;;1.77;;
59786;SDS011;45672;51.612;5.536;2022-09-09T08:26:49;7.60;;;1.88;;
59786;SDS011;45672;51.612;5.536;2022-09-09T08:29:15;4.80;;;1.80;;
59786;SDS011;45672;51.612;5.536;2022-09-09T08:31:43;8.07;;;1.88;;
59786;SDS011;45672;51.612;5.536;2022-09-09T08:34:09;7.55;;;1.80;;
59786;SDS011;45672;51.612;5.536;2022-09-09T08:36:37;10.10;;;1.63;;
59786;SDS011;45672;51.612;5.536;2022-09-09T08:39:04;10.23;;;2.08;;
59786;SDS011;45672;51.612;5.536;2022-09-09T08:44:25;7.93;;;1.75;;
59786;SDS011;45672;51.612;5.536;2022-09-09T08:55:47;5.03;;;2.00;;
59786;SDS011;45672;51.612;5.536;2022-09-09T08:58:18;8.60;;;2.15;;
59786;SDS011;45672;51.612;5.536;2022-09-09T09:11:37;9.55;;;1.90;;
59786;SDS011;45672;51.612;5.536;2022-09-09T09:14:25;7.88;;;1.88;;
59786;SDS011;45672;51.612;5.536;2022-09-09T09:19:31;9.52;;;2.20;;
59786;SDS011;45672;51.612;5.536;2022-09-09T09:22:00;8.88;;;1.90;;
59786;SDS011;45672;51.612;5.536;2022-09-09T09:30:25;10.18;;;2.33;;
59786;SDS011;45672;51.612;5.536;2022-09-09T09:33:01;8.98;;;1.88;;
59786;SDS011;45672;51.612;5.536;2022-09-09T09:35:30;5.53;;;1.90;;
59786;SDS011;45672;51.612;5.536;2022-09-09T09:37:56;7.50;;;2.10;;
59786;SDS011;45672;51.612;5.536;2022-09-09T09:40:21;8.52;;;1.98;;
59786;SDS011;45672;51.612;5.536;2022-09-09T09:42:51;10.07;;;1.95;;
59786;SDS011;45672;51.612;5.536;2022-09-09T09:47:57;13.00;;;1.88;;
59786;SDS011;45672;51.612;5.536;2022-09-09T09:50:24;6.65;;;2.15;;
59786;SDS011;45672;51.612;5.536;2022-09-09T09:52:56;9.57;;;2.25;;
59786;SDS011;45672;51.612;5.536;2022-09-09T09:55:23;7.90;;;2.10;;
59786;SDS011;45672;51.612;5.536;2022-09-09T09:57:50;10.63;;;2.50;;
59786;SDS011;45672;51.612;5.536;2022-09-09T10:00:19;9.13;;;2.10;;
59786;SDS011;45672;51.612;5.536;2022-09-09T10:02:46;8.02;;;2.10;;
59786;SDS011;45672;51.612;5.536;2022-09-09T10:05:17;7.65;;;2.00;;
59786;SDS011;45672;51.612;5.536;2022-09-09T10:07:45;5.97;;;2.05;;
59786;SDS011;45672;51.612;5.536;2022-09-09T10:10:13;6.05;;;2.00;;
59786;SDS011;45672;51.612;5.536;2022-09-09T10:12:58;10.15;;;2.00;;
59786;SDS011;45672;51.612;5.536;2022-09-09T10:21:28;8.40;;;2.08;;
59786;SDS011;45672;51.612;5.536;2022-09-09T10:24:33;8.82;;;2.42;;
59786;SDS011;45672;51.612;5.536;2022-09-09T10:29:43;10.60;;;1.90;;
59786;SDS011;45672;51.612;5.536;2022-09-09T10:32:41;7.88;;;2.30;;
59786;SDS011;45672;51.612;5.536;2022-09-09T10:57:00;4.55;;;1.80;;
59786;SDS011;45672;51.612;5.536;2022-09-09T10:59:33;8.07;;;2.38;;
59786;SDS011;45672;51.612;5.536;2022-09-09T11:02:10;6.72;;;2.17;;
59786;SDS011;45672;51.612;5.536;2022-09-09T11:04:48;5.68;;;2.15;;
59786;SDS011;45672;51.612;5.536;2022-09-09T11:10:30;9.43;;;2.65;;
59786;SDS011;45672;51.612;5.536;2022-09-09T11:13:05;6.47;;;2.20;;
59786;SDS011;45672;51.612;5.536;2022-09-09T11:15:42;5.88;;;1.88;;
59786;SDS011;45672;51.612;5.536;2022-09-09T11:18:12;5.65;;;2.20;;
59786;SDS011;45672;51.612;5.536;2022-09-09T11:20:43;10.38;;;2.15;;
59786;SDS011;45672;51.612;5.536;2022-09-09T11:23:11;7.30;;;2.00;;
59786;SDS011;45672;51.612;5.536;2022-09-09T11:25:47;6.45;;;2.03;;
59786;SDS011;45672;51.612;5.536;2022-09-09T11:28:28;9.32;;;1.98;;
59786;SDS011;45672;51.612;5.536;2022-09-09T11:37:06;3.88;;;1.85;;
59786;SDS011;45672;51.612;5.536;2022-09-09T11:42:26;3.65;;;1.80;;
59786;SDS011;45672;51.612;5.536;2022-09-09T11:44:52;5.93;;;2.00;;
59786;SDS011;45672;51.612;5.536;2022-09-09T11:47:37;3.88;;;1.67;;
59786;SDS011;45672;51.612;5.536;2022-09-09T11:50:10;6.63;;;1.90;;
59786;SDS011;45672;51.612;5.536;2022-09-09T11:55:09;4.00;;;1.53;;
59786;SDS011;45672;51.612;5.536;2022-09-09T11:57:36;5.63;;;1.90;;
59786;SDS011;45672;51.612;5.536;2022-09-09T12:00:03;6.38;;;1.77;;
59786;SDS011;45672;51.612;5.536;2022-09-09T12:02:29;4.82;;;1.60;;
59786;SDS011;45672;51.612;5.536;2022-09-09T12:10:27;6.63;;;1.95;;
59786;SDS011;45672;51.612;5.536;2022-09-09T12:13:16;4.72;;;1.83;;
59786;SDS011;45672;51.612;5.536;2022-09-09T12:15:50;5.00;;;1.83;;
59786;SDS011;45672;51.612;5.536;2022-09-09T12:18:39;4.72;;;2.10;;
59786;SDS011;45672;51.612;5.536;2022-09-09T12:27:15;5.65;;;1.92;;
59786;SDS011;45672;51.612;5.536;2022-09-09T12:30:08;3.58;;;2.00;;
59786;SDS011;45672;51.612;5.536;2022-09-09T12:32:36;6.72;;;2.00;;
59786;SDS011;45672;51.612;5.536;2022-09-09T12:35:03;3.75;;;1.98;;
59786;SDS011;45672;51.612;5.536;2022-09-09T12:37:40;4.75;;;1.75;;
59786;SDS011;45672;51.612;5.536;2022-09-09T12:40:23;3.65;;;1.88;;
59786;SDS011;45672;51.612;5.536;2022-09-09T12:42:57;3.30;;;1.45;;
59786;SDS011;45672;51.612;5.536;2022-09-09T12:45:26;4.03;;;1.80;;
59786;SDS011;45672;51.612;5.536;2022-09-09T12:50:26;6.85;;;1.75;;
59786;SDS011;45672;51.612;5.536;2022-09-09T12:52:54;4.28;;;1.88;;
59786;SDS011;45672;51.612;5.536;2022-09-09T12:55:33;4.13;;;1.70;;
59786;SDS011;45672;51.612;5.536;2022-09-09T12:58:01;7.40;;;1.85;;
59786;SDS011;45672;51.612;5.536;2022-09-09T13:00:32;4.00;;;1.67;;
59786;SDS011;45672;51.612;5.536;2022-09-09T13:02:59;5.50;;;1.75;;
59786;SDS011;45672;51.612;5.536;2022-09-09T13:05:36;6.50;;;2.00;;
59786;SDS011;45672;51.612;5.536;2022-09-09T13:08:08;3.88;;;1.80;;
59786;SDS011;45672;51.612;5.536;2022-09-09T13:10:37;6.00;;;1.85;;
59786;SDS011;45672;51.612;5.536;2022-09-09T13:13:11;11.82;;;2.40;;
59786;SDS011;45672;51.612;5.536;2022-09-09T13:15:39;13.57;;;2.65;;
59786;SDS011;45672;51.612;5.536;2022-09-09T13:18:13;15.35;;;2.95;;
59786;SDS011;45672;51.612;5.536;2022-09-09T13:20:39;11.48;;;2.65;;
59786;SDS011;45672;51.612;5.536;2022-09-09T13:23:11;8.75;;;3.40;;
59786;SDS011;45672;51.612;5.536;2022-09-09T13:25:37;7.80;;;3.38;;
59786;SDS011;45672;51.612;5.536;2022-09-09T13:28:04;10.60;;;3.40;;
59786;SDS011;45672;51.612;5.536;2022-09-09T13:30:34;6.63;;;3.05;;
59786;SDS011;45672;51.612;5.536;2022-09-09T13:33:06;9.90;;;3.25;;
59786;SDS011;45672;51.612;5.536;2022-09-09T13:35:34;9.65;;;2.92;;
59786;SDS011;45672;51.612;5.536;2022-09-09T13:38:07;7.20;;;3.65;;
59786;SDS011;45672;51.612;5.536;2022-09-09T13:40:34;8.27;;;3.95;;
59786;SDS011;45672;51.612;5.536;2022-09-09T13:42:59;9.88;;;4.25;;
59786;SDS011;45672;51.612;5.536;2022-09-09T13:45:25;10.35;;;3.40;;
59786;SDS011;45672;51.612;5.536;2022-09-09T13:47:51;7.05;;;2.75;;
59786;SDS011;45672;51.612;5.536;2022-09-09T13:50:26;7.22;;;2.67;;
59786;SDS011;45672;51.612;5.536;2022-09-09T13:52:54;8.25;;;2.88;;
59786;SDS011;45672;51.612;5.536;2022-09-09T13:55:23;8.43;;;2.67;;
59786;SDS011;45672;51.612;5.536;2022-09-09T13:57:53;7.00;;;2.30;;
59786;SDS011;45672;51.612;5.536;2022-09-09T14:00:21;6.95;;;2.45;;
59786;SDS011;45672;51.612;5.536;2022-09-09T14:02:47;8.13;;;2.30;;
59786;SDS011;45672;51.612;5.536;2022-09-09T14:05:14;4.82;;;2.20;;
59786;SDS011;45672;51.612;5.536;2022-09-09T14:07:41;5.05;;;2.20;;
59786;SDS011;45672;51.612;5.536;2022-09-09T14:10:07;6.57;;;2.30;;
59786;SDS011;45672;51.612;5.536;2022-09-09T14:12:33;6.47;;;2.15;;
59786;SDS011;45672;51.612;5.536;2022-09-09T14:14:58;8.60;;;2.55;;
59786;SDS011;45672;51.612;5.536;2022-09-09T14:17:27;4.68;;;1.75;;
59786;SDS011;45672;51.612;5.536;2022-09-09T14:19:55;5.00;;;1.67;;
59786;SDS011;45672;51.612;5.536;2022-09-09T14:22:21;2.88;;;1.60;;
59786;SDS011;45672;51.612;5.536;2022-09-09T14:24:47;4.13;;;1.83;;
59786;SDS011;45672;51.612;5.536;2022-09-09T14:27:12;8.55;;;1.80;;
59786;SDS011;45672;51.612;5.536;2022-09-09T14:29:37;10.60;;;2.30;;
59786;SDS011;45672;51.612;5.536;2022-09-09T14:32:03;6.15;;;1.88;;
59786;SDS011;45672;51.612;5.536;2022-09-09T14:34:28;4.82;;;1.80;;
59786;SDS011;45672;51.612;5.536;2022-09-09T14:36:53;4.68;;;2.20;;
59786;SDS011;45672;51.612;5.536;2022-09-09T14:39:19;4.60;;;1.95;;
59786;SDS011;45672;51.612;5.536;2022-09-09T14:41:44;5.07;;;1.83;;
59786;SDS011;45672;51.612;5.536;2022-09-09T14:44:10;4.65;;;1.90;;
59786;SDS011;45672;51.612;5.536;2022-09-09T14:46:36;3.38;;;1.70;;
59786;SDS011;45672;51.612;5.536;2022-09-09T14:49:01;5.60;;;1.70;;
59786;SDS011;45672;51.612;5.536;2022-09-09T14:51:26;5.28;;;2.00;;
59786;SDS011;45672;51.612;5.536;2022-09-09T14:53:54;3.67;;;1.90;;
59786;SDS011;45672;51.612;5.536;2022-09-09T14:56:25;4.53;;;1.70;;
59786;SDS011;45672;51.612;5.536;2022-09-09T14:58:53;3.65;;;1.50;;
59786;SDS011;45672;51.612;5.536;2022-09-09T15:01:20;4.97;;;1.70;;
59786;SDS011;45672;51.612;5.536;2022-09-09T15:03:52;3.25;;;1.80;;
59786;SDS011;45672;51.612;5.536;2022-09-09T15:06:20;6.57;;;1.70;;
59786;SDS011;45672;51.612;5.536;2022-09-09T15:08:46;4.93;;;1.70;;
59786;SDS011;45672;51.612;5.536;2022-09-09T15:11:13;4.22;;;1.80;;
59786;SDS011;45672;51.612;5.536;2022-09-09T15:13:40;4.90;;;1.70;;
59786;SDS011;45672;51.612;5.536;2022-09-09T15:16:08;8.35;;;2.00;;
59786;SDS011;45672;51.612;5.536;2022-09-09T15:18:38;6.18;;;1.92;;
59786;SDS011;45672;51.612;5.536;2022-09-09T15:23:46;8.25;;;2.08;;
59786;SDS011;45672;51.612;5.536;2022-09-09T15:26:15;16.45;;;4.30;;
59786;SDS011;45672;51.612;5.536;2022-09-09T15:28:42;15.38;;;4.50;;
59786;SDS011;45672;51.612;5.536;2022-09-09T15:33:36;4.40;;;2.10;;
59786;SDS011;45672;51.612;5.536;2022-09-09T15:38:50;1.95;;;1.10;;
59786;SDS011;45672;51.612;5.536;2022-09-09T15:41:17;4.20;;;1.30;;
59786;SDS011;45672;51.612;5.536;2022-09-09T15:43:47;3.72;;;1.30;;
59786;SDS011;45672;51.612;5.536;2022-09-09T15:48:42;4.13;;;2.10;;
59786;SDS011;45672;51.612;5.536;2022-09-09T15:51:09;5.43;;;1.95;;
59786;SDS011;45672;51.612;5.536;2022-09-09T15:53:34;2.58;;;1.90;;
59786;SDS011;45672;51.612;5.536;2022-09-09T15:56:00;3.80;;;1.70;;
59786;SDS011;45672;51.612;5.536;2022-09-09T15:58:25;5.88;;;1.83;;
59786;SDS011;45672;51.612;5.536;2022-09-09T16:00:55;6.43;;;2.17;;
59786;SDS011;45672;51.612;5.536;2022-09-09T16:03:33;2.42;;;1.70;;
59786;SDS011;45672;51.612;5.536;2022-09-09T16:05:59;5.65;;;1.50;;
59786;SDS011;45672;51.612;5.536;2022-09-09T16:08:24;7.72;;;3.03;;
59786;SDS011;45672;51.612;5.536;2022-09-09T16:10:50;5.53;;;1.40;;
59786;SDS011;45672;51.612;5.536;2022-09-09T16:13:15;1.52;;;1.27;;
59786;SDS011;45672;51.612;5.536;2022-09-09T16:15:41;3.20;;;1.70;;
59786;SDS011;45672;51.612;5.536;2022-09-09T16:18:07;4.18;;;1.60;;
59786;SDS011;45672;51.612;5.536;2022-09-09T16:20:32;3.65;;;1.52;;
59786;SDS011;45672;51.612;5.536;2022-09-09T16:22:58;1.75;;;1.40;;
59786;SDS011;45672;51.612;5.536;2022-09-09T16:25:23;3.05;;;1.90;;
59786;SDS011;45672;51.612;5.536;2022-09-09T16:27:48;3.33;;;1.80;;
59786;SDS011;45672;51.612;5.536;2022-09-09T16:30:14;3.35;;;2.03;;
59786;SDS011;45672;51.612;5.536;2022-09-09T16:32:39;3.97;;;1.80;;
59786;SDS011;45672;51.612;5.536;2022-09-09T16:35:04;3.03;;;1.65;;
59786;SDS011;45672;51.612;5.536;2022-09-09T16:37:30;2.65;;;1.75;;
59786;SDS011;45672;51.612;5.536;2022-09-09T16:39:59;4.47;;;1.70;;
59786;SDS011;45672;51.612;5.536;2022-09-09T16:42:24;1.88;;;1.75;;
59786;SDS011;45672;51.612;5.536;2022-09-09T16:44:49;2.70;;;1.70;;
59786;SDS011;45672;51.612;5.536;2022-09-09T16:47:15;5.20;;;2.00;;
59786;SDS011;45672;51.612;5.536;2022-09-09T16:49:40;3.10;;;2.22;;
59786;SDS011;45672;51.612;5.536;2022-09-09T16:52:05;5.57;;;2.20;;
59786;SDS011;45672;51.612;5.536;2022-09-09T16:54:31;5.07;;;2.80;;
59786;SDS011;45672;51.612;5.536;2022-09-09T16:56:56;8.38;;;2.80;;
59786;SDS011;45672;51.612;5.536;2022-09-09T16:59:22;6.90;;;3.10;;
59786;SDS011;45672;51.612;5.536;2022-09-09T17:01:49;3.72;;;2.78;;
59786;SDS011;45672;51.612;5.536;2022-09-09T17:04:17;4.65;;;3.08;;
59786;SDS011;45672;51.612;5.536;2022-09-09T17:06:49;7.72;;;3.42;;
59786;SDS011;45672;51.612;5.536;2022-09-09T17:09:16;5.95;;;3.50;;
59786;SDS011;45672;51.612;5.536;2022-09-09T17:11:42;7.15;;;3.53;;
59786;SDS011;45672;51.612;5.536;2022-09-09T17:14:08;5.88;;;3.63;;
59786;SDS011;45672;51.612;5.536;2022-09-09T17:16:36;6.40;;;3.55;;
59786;SDS011;45672;51.612;5.536;2022-09-09T17:19:04;5.60;;;3.55;;